sensor_id;sensor_type;location;lat;lon;timestamp;pressure;altitude;pressure_sealevel;temperature;humidity
67397;BME280;57728;50.448;18.824;2023-02-19T00:00:31;97538.94;;;7.44;74.65
67397;BME280;57728;50.448;18.824;2023-02-19T00:02:33;97513.28;;;7.28;74.29
67397;BME280;57728;50.448;18.824;2023-02-19T00:04:35;97443.31;;;6.81;74.09
67397;BME280;57728;50.448;18.824;2023-02-19T00:06:39;97559.00;;;7.61;74.18
67397;BME280;57728;50.448;18.824;2023-02-19T00:08:41;97400.47;;;6.52;73.74
67397;BME280;57728;50.448;18.824;2023-02-19T00:10:42;97389.34;;;6.42;73.81
67397;BME280;57728;50.448;18.824;2023-02-19T00:12:44;97565.09;;;7.56;73.86
67397;BME280;57728;50.448;18.824;2023-02-19T00:14:45;97539.03;;;7.37;73.66
67397;BME280;57728;50.448;18.824;2023-02-19T00:16:48;97504.38;;;7.20;73.54
67397;BME280;57728;50.448;18.824;2023-02-19T00:18:53;97431.44;;;6.82;73.43
67397;BME280;57728;50.448;18.824;2023-02-19T00:20:55;97530.28;;;7.35;73.19
67397;BME280;57728;50.448;18.824;2023-02-19T00:22:57;97365.63;;;6.37;72.89
67397;BME280;57728;50.448;18.824;2023-02-19T00:24:59;97530.28;;;7.35;73.15
67397;BME280;57728;50.448;18.824;2023-02-19T00:27:01;97511.47;;;7.21;73.10
67397;BME280;57728;50.448;18.824;2023-02-19T00:29:02;97429.09;;;6.60;73.07
67397;BME280;57728;50.448;18.824;2023-02-19T00:31:08;97575.28;;;7.61;73.14
67397;BME280;57728;50.448;18.824;2023-02-19T00:33:15;97508.13;;;7.19;72.98
67397;BME280;57728;50.448;18.824;2023-02-19T00:35:16;97430.91;;;6.73;72.96
67397;BME280;57728;50.448;18.824;2023-02-19T00:37:19;97507.53;;;7.17;73.08
67397;BME280;57728;50.448;18.824;2023-02-19T00:39:20;97449.72;;;6.86;73.14
67397;BME280;57728;50.448;18.824;2023-02-19T00:41:22;97482.41;;;7.10;73.24
67397;BME280;57728;50.448;18.824;2023-02-19T00:43:26;97416.22;;;6.62;73.23
67397;BME280;57728;50.448;18.824;2023-02-19T00:45:27;97561.59;;;7.49;73.81
67397;BME280;57728;50.448;18.824;2023-02-19T00:47:29;97415.44;;;6.55;74.02
67397;BME280;57728;50.448;18.824;2023-02-19T00:49:31;97580.16;;;7.52;74.36
67397;BME280;57728;50.448;18.824;2023-02-19T00:51:35;97449.66;;;6.68;74.47
67397;BME280;57728;50.448;18.824;2023-02-19T00:53:38;97430.41;;;6.58;74.54
67397;BME280;57728;50.448;18.824;2023-02-19T00:55:41;97504.53;;;7.07;74.57
67397;BME280;57728;50.448;18.824;2023-02-19T00:57:43;97434.53;;;6.60;74.43
67397;BME280;57728;50.448;18.824;2023-02-19T00:59:44;97570.19;;;7.46;74.70
67397;BME280;57728;50.448;18.824;2023-02-19T01:01:46;97571.63;;;7.49;74.40
67397;BME280;57728;50.448;18.824;2023-02-19T01:03:49;97536.81;;;7.27;74.40
67397;BME280;57728;50.448;18.824;2023-02-19T01:05:52;97507.44;;;7.05;74.54
67397;BME280;57728;50.448;18.824;2023-02-19T01:07:55;97525.69;;;7.17;74.70
67397;BME280;57728;50.448;18.824;2023-02-19T01:09:57;97572.88;;;7.46;74.83
67397;BME280;57728;50.448;18.824;2023-02-19T01:11:58;97560.16;;;7.28;74.78
67397;BME280;57728;50.448;18.824;2023-02-19T01:14:01;97538.38;;;7.16;75.15
67397;BME280;57728;50.448;18.824;2023-02-19T01:16:12;97425.25;;;6.49;75.22
67397;BME280;57728;50.448;18.824;2023-02-19T01:18:17;97571.09;;;7.40;75.45
67397;BME280;57728;50.448;18.824;2023-02-19T01:20:20;97488.66;;;6.85;75.51
67397;BME280;57728;50.448;18.824;2023-02-19T01:22:21;97421.16;;;6.40;75.70
67397;BME280;57728;50.448;18.824;2023-02-19T01:24:22;97505.00;;;6.97;76.08
67397;BME280;57728;50.448;18.824;2023-02-19T01:26:28;97444.06;;;6.63;76.00
67397;BME280;57728;50.448;18.824;2023-02-19T01:28:31;97470.50;;;6.67;76.29
67397;BME280;57728;50.448;18.824;2023-02-19T01:30:36;97541.69;;;7.18;76.69
67397;BME280;57728;50.448;18.824;2023-02-19T01:32:40;97378.88;;;6.20;76.77
67397;BME280;57728;50.448;18.824;2023-02-19T01:34:41;97438.28;;;6.59;76.99
67397;BME280;57728;50.448;18.824;2023-02-19T01:36:42;97563.06;;;7.27;77.23
67397;BME280;57728;50.448;18.824;2023-02-19T01:38:45;97446.34;;;6.66;77.35
67397;BME280;57728;50.448;18.824;2023-02-19T01:41:20;97474.69;;;6.88;77.42
67397;BME280;57728;50.448;18.824;2023-02-19T01:43:23;97537.66;;;7.28;77.45
67397;BME280;57728;50.448;18.824;2023-02-19T01:45:36;97538.28;;;7.30;77.80
67397;BME280;57728;50.448;18.824;2023-02-19T01:47:43;97553.66;;;7.29;77.89
67397;BME280;57728;50.448;18.824;2023-02-19T01:49:52;97418.41;;;6.47;77.69
67397;BME280;57728;50.448;18.824;2023-02-19T01:51:58;97528.94;;;7.26;77.99
67397;BME280;57728;50.448;18.824;2023-02-19T01:54:18;97528.47;;;7.29;78.08
67397;BME280;57728;50.448;18.824;2023-02-19T01:56:24;97534.72;;;7.29;78.04
67397;BME280;57728;50.448;18.824;2023-02-19T01:58:32;97337.41;;;6.08;78.05
67397;BME280;57728;50.448;18.824;2023-02-19T02:00:37;97502.13;;;7.17;78.11
67397;BME280;57728;50.448;18.824;2023-02-19T02:02:41;97498.22;;;7.13;78.00
67397;BME280;57728;50.448;18.824;2023-02-19T02:04:48;97512.19;;;7.35;78.07
67397;BME280;57728;50.448;18.824;2023-02-19T02:06:55;97465.78;;;7.06;78.20
67397;BME280;57728;50.448;18.824;2023-02-19T02:08:59;97447.34;;;6.97;78.14
67397;BME280;57728;50.448;18.824;2023-02-19T02:11:20;97528.03;;;7.32;78.23
67397;BME280;57728;50.448;18.824;2023-02-19T02:13:22;97430.78;;;6.86;78.38
67397;BME280;57728;50.448;18.824;2023-02-19T02:15:42;97323.41;;;6.18;78.53
67397;BME280;57728;50.448;18.824;2023-02-19T02:20:50;97497.31;;;7.19;79.02
67397;BME280;57728;50.448;18.824;2023-02-19T02:31:34;97336.47;;;6.21;79.47
67397;BME280;57728;50.448;18.824;2023-02-19T02:33:58;97420.69;;;6.75;79.46
67397;BME280;57728;50.448;18.824;2023-02-19T02:36:17;97469.47;;;7.12;79.62
67397;BME280;57728;50.448;18.824;2023-02-19T02:38:26;97423.97;;;6.77;79.63
67397;BME280;57728;50.448;18.824;2023-02-19T02:40:32;97425.19;;;6.81;79.66
67397;BME280;57728;50.448;18.824;2023-02-19T02:42:38;97319.25;;;6.15;79.69
67397;BME280;57728;50.448;18.824;2023-02-19T02:44:44;97489.03;;;7.14;79.97
67397;BME280;57728;50.448;18.824;2023-02-19T02:47:07;97463.25;;;6.86;80.04
67397;BME280;57728;50.448;18.824;2023-02-19T02:49:33;97478.44;;;7.13;79.95
67397;BME280;57728;50.448;18.824;2023-02-19T02:51:57;97444.47;;;6.92;79.88
67397;BME280;57728;50.448;18.824;2023-02-19T02:54:28;97475.50;;;7.14;80.01
67397;BME280;57728;50.448;18.824;2023-02-19T02:56:55;97311.84;;;6.04;79.83
67397;BME280;57728;50.448;18.824;2023-02-19T02:59:03;97336.06;;;6.17;79.92
67397;BME280;57728;50.448;18.824;2023-02-19T03:01:16;97462.03;;;7.08;80.07
67397;BME280;57728;50.448;18.824;2023-02-19T03:03:46;97382.94;;;6.62;79.96
67397;BME280;57728;50.448;18.824;2023-02-19T03:06:00;97334.34;;;6.23;79.68
67397;BME280;57728;50.448;18.824;2023-02-19T03:08:35;97353.81;;;6.32;80.01
67397;BME280;57728;50.448;18.824;2023-02-19T03:13:34;97301.91;;;5.98;79.89
67397;BME280;57728;50.448;18.824;2023-02-19T03:16:14;97391.16;;;6.48;80.02
67397;BME280;57728;50.448;18.824;2023-02-19T03:18:44;97452.59;;;6.92;80.18
67397;BME280;57728;50.448;18.824;2023-02-19T03:21:10;97452.19;;;6.88;79.94
67397;BME280;57728;50.448;18.824;2023-02-19T03:23:17;97346.06;;;6.17;79.77
67397;BME280;57728;50.448;18.824;2023-02-19T03:25:29;97457.25;;;6.84;80.01
67397;BME280;57728;50.448;18.824;2023-02-19T03:28:00;97453.31;;;6.80;80.05
67397;BME280;57728;50.448;18.824;2023-02-19T03:30:18;97454.38;;;6.79;80.10
67397;BME280;57728;50.448;18.824;2023-02-19T03:32:33;97447.72;;;6.75;80.17
67397;BME280;57728;50.448;18.824;2023-02-19T03:34:56;97295.34;;;5.80;80.10
67397;BME280;57728;50.448;18.824;2023-02-19T03:37:11;97293.47;;;5.81;79.92
67397;BME280;57728;50.448;18.824;2023-02-19T03:39:19;97458.50;;;6.82;80.03
67397;BME280;57728;50.448;18.824;2023-02-19T03:41:47;97278.81;;;5.70;79.99
67397;BME280;57728;50.448;18.824;2023-02-19T03:46:13;97402.59;;;6.50;80.08
67397;BME280;57728;50.448;18.824;2023-02-19T03:48:32;97454.75;;;6.83;80.06
67397;BME280;57728;50.448;18.824;2023-02-19T03:53:55;97452.69;;;6.78;80.08
67397;BME280;57728;50.448;18.824;2023-02-19T03:56:13;97383.94;;;6.42;80.06
67397;BME280;57728;50.448;18.824;2023-02-19T03:58:32;97341.31;;;6.12;80.04
67397;BME280;57728;50.448;18.824;2023-02-19T04:00:52;97347.06;;;6.23;80.03
67397;BME280;57728;50.448;18.824;2023-02-19T04:03:06;97438.53;;;6.83;80.15
67397;BME280;57728;50.448;18.824;2023-02-19T04:05:26;97440.38;;;6.82;80.13
67397;BME280;57728;50.448;18.824;2023-02-19T04:07:34;97435.59;;;6.84;80.17
67397;BME280;57728;50.448;18.824;2023-02-19T04:09:47;97384.66;;;6.56;80.14
67397;BME280;57728;50.448;18.824;2023-02-19T04:11:54;97397.28;;;6.62;80.11
67397;BME280;57728;50.448;18.824;2023-02-19T04:14:10;97388.75;;;6.59;80.16
67397;BME280;57728;50.448;18.824;2023-02-19T04:16:23;97320.84;;;6.23;80.34
67397;BME280;57728;50.448;18.824;2023-02-19T04:18:35;97378.94;;;6.64;80.09
67397;BME280;57728;50.448;18.824;2023-02-19T04:20:44;97420.94;;;6.92;79.98
67397;BME280;57728;50.448;18.824;2023-02-19T04:22:48;97423.28;;;6.88;80.14
67397;BME280;57728;50.448;18.824;2023-02-19T04:24:52;97415.59;;;6.85;80.25
67397;BME280;57728;50.448;18.824;2023-02-19T04:26:56;97250.59;;;5.66;80.27
67397;BME280;57728;50.448;18.824;2023-02-19T04:28:58;97258.84;;;5.71;80.40
67397;BME280;57728;50.448;18.824;2023-02-19T04:31:01;97391.06;;;6.62;80.45
67397;BME280;57728;50.448;18.824;2023-02-19T04:33:03;97349.81;;;6.41;80.73
67397;BME280;57728;50.448;18.824;2023-02-19T04:35:05;97418.28;;;6.85;80.78
67397;BME280;57728;50.448;18.824;2023-02-19T04:37:06;97351.63;;;6.47;80.73
67397;BME280;57728;50.448;18.824;2023-02-19T04:39:09;97345.78;;;6.50;80.82
67397;BME280;57728;50.448;18.824;2023-02-19T04:41:10;97341.44;;;6.49;80.76
67397;BME280;57728;50.448;18.824;2023-02-19T04:43:12;97404.25;;;6.95;80.89
67397;BME280;57728;50.448;18.824;2023-02-19T04:45:14;97378.16;;;6.82;80.80
67397;BME280;57728;50.448;18.824;2023-02-19T04:47:15;97235.88;;;5.87;80.67
67397;BME280;57728;50.448;18.824;2023-02-19T04:49:17;97316.69;;;6.46;80.81
67397;BME280;57728;50.448;18.824;2023-02-19T04:51:19;97302.34;;;6.45;80.88
67397;BME280;57728;50.448;18.824;2023-02-19T04:53:21;97337.09;;;6.67;80.94
67397;BME280;57728;50.448;18.824;2023-02-19T04:55:22;97353.56;;;6.84;81.03
67397;BME280;57728;50.448;18.824;2023-02-19T04:57:25;97382.56;;;7.02;80.90
67397;BME280;57728;50.448;18.824;2023-02-19T04:59:26;97349.16;;;6.89;81.02
67397;BME280;57728;50.448;18.824;2023-02-19T05:01:30;97308.09;;;6.74;80.82
67397;BME280;57728;50.448;18.824;2023-02-19T05:03:35;97334.56;;;6.91;80.82
67397;BME280;57728;50.448;18.824;2023-02-19T05:05:37;97261.03;;;6.38;80.63
67397;BME280;57728;50.448;18.824;2023-02-19T05:07:40;97215.06;;;6.19;80.53
67397;BME280;57728;50.448;18.824;2023-02-19T05:09:45;97308.50;;;6.78;80.71
67397;BME280;57728;50.448;18.824;2023-02-19T05:11:47;97343.00;;;7.01;80.45
67397;BME280;57728;50.448;18.824;2023-02-19T05:13:48;97368.22;;;7.20;80.40
67397;BME280;57728;50.448;18.824;2023-02-19T05:16:02;97325.88;;;6.88;80.53
67397;BME280;57728;50.448;18.824;2023-02-19T05:18:08;97387.97;;;7.20;80.58
67397;BME280;57728;50.448;18.824;2023-02-19T05:20:10;97355.41;;;7.09;80.58
67397;BME280;57728;50.448;18.824;2023-02-19T05:22:12;97368.03;;;7.15;80.49
67397;BME280;57728;50.448;18.824;2023-02-19T05:24:13;97337.13;;;7.04;80.38
67397;BME280;57728;50.448;18.824;2023-02-19T05:26:18;97292.31;;;6.89;80.22
67397;BME280;57728;50.448;18.824;2023-02-19T05:28:23;97339.47;;;7.19;80.07
67397;BME280;57728;50.448;18.824;2023-02-19T05:30:30;97363.25;;;7.35;80.54
67397;BME280;57728;50.448;18.824;2023-02-19T05:32:33;97352.47;;;7.29;80.29
67397;BME280;57728;50.448;18.824;2023-02-19T05:34:37;97361.28;;;7.43;80.14
67397;BME280;57728;50.448;18.824;2023-02-19T05:36:38;97314.13;;;7.13;79.82
67397;BME280;57728;50.448;18.824;2023-02-19T05:38:40;97342.41;;;7.36;79.78
67397;BME280;57728;50.448;18.824;2023-02-19T05:40:44;97329.31;;;7.33;80.02
67397;BME280;57728;50.448;18.824;2023-02-19T05:42:46;97312.16;;;7.20;80.00
67397;BME280;57728;50.448;18.824;2023-02-19T05:44:47;97352.47;;;7.47;80.11
67397;BME280;57728;50.448;18.824;2023-02-19T05:46:52;97346.47;;;7.45;79.93
67397;BME280;57728;50.448;18.824;2023-02-19T05:48:54;97276.31;;;7.06;79.89
67397;BME280;57728;50.448;18.824;2023-02-19T05:51:01;97325.09;;;7.37;79.72
67397;BME280;57728;50.448;18.824;2023-02-19T05:53:05;97299.25;;;7.22;79.80
67397;BME280;57728;50.448;18.824;2023-02-19T05:55:06;97359.66;;;7.53;79.83
67397;BME280;57728;50.448;18.824;2023-02-19T05:57:16;97353.66;;;7.51;79.74
67397;BME280;57728;50.448;18.824;2023-02-19T05:59:21;97335.47;;;7.40;79.73
67397;BME280;57728;50.448;18.824;2023-02-19T06:01:26;97332.16;;;7.38;79.74
67397;BME280;57728;50.448;18.824;2023-02-19T06:03:31;97331.34;;;7.37;79.99
67397;BME280;57728;50.448;18.824;2023-02-19T06:05:33;97318.94;;;7.30;79.87
67397;BME280;57728;50.448;18.824;2023-02-19T06:07:43;97354.59;;;7.45;79.79
67397;BME280;57728;50.448;18.824;2023-02-19T06:09:48;97221.47;;;6.62;80.21
67397;BME280;57728;50.448;18.824;2023-02-19T06:12:04;97352.31;;;7.42;80.08
67397;BME280;57728;50.448;18.824;2023-02-19T06:14:16;97350.06;;;7.39;80.11
67397;BME280;57728;50.448;18.824;2023-02-19T06:16:27;97351.56;;;7.35;80.18
67397;BME280;57728;50.448;18.824;2023-02-19T06:18:40;97341.03;;;7.27;80.42
67397;BME280;57728;50.448;18.824;2023-02-19T06:20:42;97329.91;;;7.16;80.47
67397;BME280;57728;50.448;18.824;2023-02-19T06:22:49;97348.56;;;7.25;80.54
67397;BME280;57728;50.448;18.824;2023-02-19T06:24:59;97348.19;;;7.21;80.94
67397;BME280;57728;50.448;18.824;2023-02-19T06:27:16;97324.56;;;7.10;81.01
67397;BME280;57728;50.448;18.824;2023-02-19T06:29:21;97273.09;;;6.79;80.95
67397;BME280;57728;50.448;18.824;2023-02-19T06:31:26;97320.59;;;7.12;81.12
67397;BME280;57728;50.448;18.824;2023-02-19T06:33:28;97351.66;;;7.28;81.00
67397;BME280;57728;50.448;18.824;2023-02-19T06:35:30;97337.28;;;7.28;81.10
67397;BME280;57728;50.448;18.824;2023-02-19T06:37:32;97319.94;;;7.17;81.13
67397;BME280;57728;50.448;18.824;2023-02-19T06:39:33;97329.16;;;7.28;81.23
67397;BME280;57728;50.448;18.824;2023-02-19T06:41:35;97331.78;;;7.34;81.22
67397;BME280;57728;50.448;18.824;2023-02-19T06:43:39;97336.97;;;7.36;80.95
67397;BME280;57728;50.448;18.824;2023-02-19T06:45:41;97316.31;;;7.23;81.09
67397;BME280;57728;50.448;18.824;2023-02-19T06:47:42;97269.19;;;6.94;81.00
67397;BME280;57728;50.448;18.824;2023-02-19T06:49:44;97291.28;;;7.09;81.07
67397;BME280;57728;50.448;18.824;2023-02-19T06:51:46;97336.53;;;7.39;81.09
67397;BME280;57728;50.448;18.824;2023-02-19T06:53:49;97299.69;;;7.19;81.13
67397;BME280;57728;50.448;18.824;2023-02-19T06:56:01;97338.75;;;7.42;81.23
67397;BME280;57728;50.448;18.824;2023-02-19T06:58:07;97334.19;;;7.43;81.16
67397;BME280;57728;50.448;18.824;2023-02-19T07:00:09;97318.47;;;7.33;81.26
67397;BME280;57728;50.448;18.824;2023-02-19T07:02:11;97323.44;;;7.36;81.34
67397;BME280;57728;50.448;18.824;2023-02-19T07:04:13;97312.16;;;7.39;81.35
67397;BME280;57728;50.448;18.824;2023-02-19T07:06:15;97286.88;;;7.27;81.50
67397;BME280;57728;50.448;18.824;2023-02-19T07:08:23;97188.50;;;6.72;81.41
67397;BME280;57728;50.448;18.824;2023-02-19T07:10:31;97342.34;;;7.73;81.33
67397;BME280;57728;50.448;18.824;2023-02-19T07:12:33;97283.09;;;7.46;81.25
67397;BME280;57728;50.448;18.824;2023-02-19T07:14:35;97296.00;;;7.63;80.90
67397;BME280;57728;50.448;18.824;2023-02-19T07:16:36;97285.72;;;7.53;80.76
67397;BME280;57728;50.448;18.824;2023-02-19T07:18:39;97335.22;;;7.90;80.74
67397;BME280;57728;50.448;18.824;2023-02-19T07:20:42;97340.19;;;7.94;80.56
67397;BME280;57728;50.448;18.824;2023-02-19T07:22:43;97298.41;;;7.71;80.31
67397;BME280;57728;50.448;18.824;2023-02-19T07:24:44;97318.66;;;7.80;80.37
67397;BME280;57728;50.448;18.824;2023-02-19T07:26:47;97278.09;;;7.62;80.26
67397;BME280;57728;50.448;18.824;2023-02-19T07:28:50;97307.84;;;7.80;80.36
67397;BME280;57728;50.448;18.824;2023-02-19T07:30:52;97259.91;;;7.50;80.31
67397;BME280;57728;50.448;18.824;2023-02-19T07:32:54;97314.59;;;7.89;80.33
67397;BME280;57728;50.448;18.824;2023-02-19T07:34:55;97256.00;;;7.46;80.43
67397;BME280;57728;50.448;18.824;2023-02-19T07:36:57;97295.78;;;7.64;80.39
67397;BME280;57728;50.448;18.824;2023-02-19T07:38:59;97189.16;;;6.86;80.14
67397;BME280;57728;50.448;18.824;2023-02-19T07:41:02;97282.31;;;7.57;80.49
67397;BME280;57728;50.448;18.824;2023-02-19T07:43:04;97313.13;;;7.75;80.72
67397;BME280;57728;50.448;18.824;2023-02-19T07:45:07;97155.50;;;6.82;80.56
67397;BME280;57728;50.448;18.824;2023-02-19T07:47:08;97325.28;;;7.84;80.64
67397;BME280;57728;50.448;18.824;2023-02-19T07:49:10;97251.44;;;7.47;80.79
67397;BME280;57728;50.448;18.824;2023-02-19T07:51:15;97265.34;;;7.50;80.54
67397;BME280;57728;50.448;18.824;2023-02-19T07:53:19;97330.72;;;7.84;80.56
67397;BME280;57728;50.448;18.824;2023-02-19T07:55:23;97293.06;;;7.64;80.63
67397;BME280;57728;50.448;18.824;2023-02-19T07:57:29;97323.66;;;7.83;80.97
67397;BME280;57728;50.448;18.824;2023-02-19T07:59:31;97302.16;;;7.70;80.92
67397;BME280;57728;50.448;18.824;2023-02-19T08:01:32;97093.78;;;6.42;80.50
67397;BME280;57728;50.448;18.824;2023-02-19T08:03:53;97275.69;;;7.53;80.64
67397;BME280;57728;50.448;18.824;2023-02-19T08:05:56;97324.00;;;7.87;80.87
67397;BME280;57728;50.448;18.824;2023-02-19T08:07:59;97333.56;;;7.89;80.66
67397;BME280;57728;50.448;18.824;2023-02-19T08:10:02;97254.59;;;7.44;80.75
67397;BME280;57728;50.448;18.824;2023-02-19T08:12:23;97243.25;;;7.35;80.92
67397;BME280;57728;50.448;18.824;2023-02-19T08:14:43;97341.31;;;7.86;80.92
67397;BME280;57728;50.448;18.824;2023-02-19T08:16:49;97334.50;;;7.83;80.83
67397;BME280;57728;50.448;18.824;2023-02-19T08:18:51;97320.88;;;7.71;80.75
67397;BME280;57728;50.448;18.824;2023-02-19T08:20:54;97332.91;;;7.75;80.90
67397;BME280;57728;50.448;18.824;2023-02-19T08:22:57;97308.72;;;7.62;80.93
67397;BME280;57728;50.448;18.824;2023-02-19T08:24:59;97233.75;;;7.14;80.96
67397;BME280;57728;50.448;18.824;2023-02-19T08:27:00;97328.53;;;7.74;81.02
67397;BME280;57728;50.448;18.824;2023-02-19T08:29:04;97269.06;;;7.37;80.85
67397;BME280;57728;50.448;18.824;2023-02-19T08:31:08;97324.31;;;7.79;80.83
67397;BME280;57728;50.448;18.824;2023-02-19T08:33:14;97324.66;;;7.70;80.69
67397;BME280;57728;50.448;18.824;2023-02-19T08:35:18;97339.53;;;7.80;80.59
67397;BME280;57728;50.448;18.824;2023-02-19T08:37:20;97330.81;;;7.78;80.63
67397;BME280;57728;50.448;18.824;2023-02-19T08:39:21;97339.91;;;7.83;80.18
67397;BME280;57728;50.448;18.824;2023-02-19T08:41:24;97322.91;;;7.76;80.07
67397;BME280;57728;50.448;18.824;2023-02-19T08:43:26;97270.47;;;7.40;79.89
67397;BME280;57728;50.448;18.824;2023-02-19T08:45:27;97272.38;;;7.39;79.69
67397;BME280;57728;50.448;18.824;2023-02-19T08:47:29;97294.88;;;7.52;79.60
67397;BME280;57728;50.448;18.824;2023-02-19T08:49:31;97312.31;;;7.44;79.50
67397;BME280;57728;50.448;18.824;2023-02-19T08:51:32;97343.03;;;7.68;79.26
67397;BME280;57728;50.448;18.824;2023-02-19T08:53:36;97323.50;;;7.48;78.92
67397;BME280;57728;50.448;18.824;2023-02-19T08:55:40;97322.91;;;7.46;78.91
67397;BME280;57728;50.448;18.824;2023-02-19T08:57:41;97348.63;;;7.55;78.93
67397;BME280;57728;50.448;18.824;2023-02-19T08:59:43;97118.34;;;6.03;78.60
67397;BME280;57728;50.448;18.824;2023-02-19T09:01:45;97220.19;;;6.65;79.04
67397;BME280;57728;50.448;18.824;2023-02-19T09:03:46;97241.59;;;6.85;79.04
67397;BME280;57728;50.448;18.824;2023-02-19T09:05:48;97232.50;;;6.79;78.94
67397;BME280;57728;50.448;18.824;2023-02-19T09:07:50;97227.34;;;6.78;78.77
67397;BME280;57728;50.448;18.824;2023-02-19T09:09:51;97205.00;;;6.64;78.73
67397;BME280;57728;50.448;18.824;2023-02-19T09:11:54;97300.75;;;7.18;78.79
67397;BME280;57728;50.448;18.824;2023-02-19T09:13:56;97299.25;;;7.04;78.83
67397;BME280;57728;50.448;18.824;2023-02-19T09:15:57;97140.13;;;6.08;78.80
67397;BME280;57728;50.448;18.824;2023-02-19T09:18:00;97361.56;;;7.53;78.94
67397;BME280;57728;50.448;18.824;2023-02-19T09:20:01;97366.75;;;7.54;79.05
67397;BME280;57728;50.448;18.824;2023-02-19T09:22:04;97308.03;;;7.18;78.92
67397;BME280;57728;50.448;18.824;2023-02-19T09:24:08;97324.44;;;7.23;78.87
67397;BME280;57728;50.448;18.824;2023-02-19T09:26:09;97383.84;;;7.55;78.64
67397;BME280;57728;50.448;18.824;2023-02-19T09:28:11;97379.31;;;7.49;78.33
67397;BME280;57728;50.448;18.824;2023-02-19T09:30:15;97342.03;;;7.14;77.80
67397;BME280;57728;50.448;18.824;2023-02-19T09:32:17;97242.41;;;6.30;77.00
67397;BME280;57728;50.448;18.824;2023-02-19T09:34:18;97223.75;;;5.96;76.95
67397;BME280;57728;50.448;18.824;2023-02-19T09:36:20;97174.66;;;5.56;76.69
67397;BME280;57728;50.448;18.824;2023-02-19T09:38:22;97247.06;;;5.91;76.93
67397;BME280;57728;50.448;18.824;2023-02-19T09:40:23;97254.28;;;5.72;76.72
67397;BME280;57728;50.448;18.824;2023-02-19T09:42:30;97372.34;;;6.35;76.96
67397;BME280;57728;50.448;18.824;2023-02-19T09:44:36;97277.66;;;5.53;76.97
67397;BME280;57728;50.448;18.824;2023-02-19T09:46:44;97351.38;;;5.98;77.03
67397;BME280;57728;50.448;18.824;2023-02-19T09:48:52;97340.50;;;5.73;77.04
67397;BME280;57728;50.448;18.824;2023-02-19T09:51:01;97443.03;;;6.32;77.14
67397;BME280;57728;50.448;18.824;2023-02-19T09:53:14;97441.84;;;6.28;77.06
67397;BME280;57728;50.448;18.824;2023-02-19T09:55:38;97444.97;;;6.25;77.14
67397;BME280;57728;50.448;18.824;2023-02-19T09:57:44;97313.31;;;5.29;77.12
67397;BME280;57728;50.448;18.824;2023-02-19T09:59:55;97451.84;;;6.20;76.95
67397;BME280;57728;50.448;18.824;2023-02-19T10:02:23;97439.47;;;6.06;77.13
67397;BME280;57728;50.448;18.824;2023-02-19T10:04:25;97327.22;;;5.33;77.04
67397;BME280;57728;50.448;18.824;2023-02-19T10:06:27;97433.25;;;5.99;77.03
67397;BME280;57728;50.448;18.824;2023-02-19T10:08:33;97411.72;;;5.85;76.98
67397;BME280;57728;50.448;18.824;2023-02-19T10:10:38;97466.25;;;6.14;76.58
67397;BME280;57728;50.448;18.824;2023-02-19T10:12:46;97430.41;;;5.87;76.40
67397;BME280;57728;50.448;18.824;2023-02-19T10:15:04;97427.91;;;5.85;76.55
67397;BME280;57728;50.448;18.824;2023-02-19T10:17:28;97428.50;;;5.88;76.73
67397;BME280;57728;50.448;18.824;2023-02-19T10:19:33;97361.81;;;5.43;76.62
67397;BME280;57728;50.448;18.824;2023-02-19T10:21:40;97469.72;;;6.22;76.63
67397;BME280;57728;50.448;18.824;2023-02-19T10:23:43;97387.44;;;5.72;76.26
67397;BME280;57728;50.448;18.824;2023-02-19T10:25:57;97437.59;;;6.07;76.00
67397;BME280;57728;50.448;18.824;2023-02-19T10:28:01;97481.34;;;6.29;75.63
67397;BME280;57728;50.448;18.824;2023-02-19T10:30:05;97308.78;;;5.23;75.34
67397;BME280;57728;50.448;18.824;2023-02-19T10:32:14;97474.91;;;6.23;75.19
67397;BME280;57728;50.448;18.824;2023-02-19T10:34:22;97304.44;;;5.15;75.41
67397;BME280;57728;50.448;18.824;2023-02-19T10:36:27;97479.41;;;6.36;76.01
67397;BME280;57728;50.448;18.824;2023-02-19T10:38:33;97378.00;;;5.88;75.07
67397;BME280;57728;50.448;18.824;2023-02-19T10:40:44;97446.44;;;6.20;74.19
67397;BME280;57728;50.448;18.824;2023-02-19T10:42:49;97498.75;;;6.40;74.35
67397;BME280;57728;50.448;18.824;2023-02-19T10:44:57;97507.91;;;6.39;74.47
67397;BME280;57728;50.448;18.824;2023-02-19T10:47:03;97499.66;;;6.27;73.75
67397;BME280;57728;50.448;18.824;2023-02-19T10:49:28;97500.94;;;6.17;74.05
67397;BME280;57728;50.448;18.824;2023-02-19T10:51:37;97448.53;;;5.73;74.14
67397;BME280;57728;50.448;18.824;2023-02-19T10:53:48;97506.19;;;6.12;74.38
67397;BME280;57728;50.448;18.824;2023-02-19T10:56:08;97473.41;;;5.89;74.20
67397;BME280;57728;50.448;18.824;2023-02-19T10:58:32;97469.66;;;5.90;74.05
67397;BME280;57728;50.448;18.824;2023-02-19T11:00:38;97498.75;;;6.01;73.42
67397;BME280;57728;50.448;18.824;2023-02-19T11:02:41;97525.34;;;6.04;73.93
67397;BME280;57728;50.448;18.824;2023-02-19T11:07:16;97406.53;;;5.25;74.08
67397;BME280;57728;50.448;18.824;2023-02-19T11:11:36;97457.66;;;5.79;73.96
67397;BME280;57728;50.448;18.824;2023-02-19T11:13:41;97445.19;;;5.78;73.41
67397;BME280;57728;50.448;18.824;2023-02-19T11:15:50;97465.28;;;5.89;73.50
67397;BME280;57728;50.448;18.824;2023-02-19T11:20:16;97513.91;;;5.95;73.34
67397;BME280;57728;50.448;18.824;2023-02-19T11:22:31;97538.19;;;6.09;73.27
67397;BME280;57728;50.448;18.824;2023-02-19T11:24:37;97468.31;;;5.54;73.15
67397;BME280;57728;50.448;18.824;2023-02-19T11:26:43;97481.41;;;5.57;73.59
67397;BME280;57728;50.448;18.824;2023-02-19T11:28:57;97545.50;;;5.88;73.86
67397;BME280;57728;50.448;18.824;2023-02-19T11:31:26;97548.63;;;5.85;73.45
67397;BME280;57728;50.448;18.824;2023-02-19T11:33:32;97516.28;;;5.58;73.17
67397;BME280;57728;50.448;18.824;2023-02-19T11:35:34;97405.34;;;4.88;73.40
67397;BME280;57728;50.448;18.824;2023-02-19T11:37:36;97559.28;;;5.73;73.59